sensor_id;sensor_type;location;lat;lon;timestamp;P1;durP1;ratioP1;P2;durP2;ratioP2
70592;SDS011;58294;42.988;20.338;2023-06-19T00:01:19;64.85;;;49.60;;
70592;SDS011;58294;42.988;20.338;2023-06-19T00:03:45;63.60;;;45.15;;
70592;SDS011;58294;42.988;20.338;2023-06-19T00:06:11;194.18;;;132.32;;
70592;SDS011;58294;42.988;20.338;2023-06-19T00:08:40;172.40;;;113.50;;
70592;SDS011;58294;42.988;20.338;2023-06-19T00:11:08;216.70;;;149.82;;
70592;SDS011;58294;42.988;20.338;2023-06-19T00:13:34;152.13;;;98.45;;
70592;SDS011;58294;42.988;20.338;2023-06-19T00:16:00;64.30;;;42.38;;
70592;SDS011;58294;42.988;20.338;2023-06-19T00:18:26;236.23;;;159.52;;
70592;SDS011;58294;42.988;20.338;2023-06-19T00:20:53;122.05;;;74.20;;
70592;SDS011;58294;42.988;20.338;2023-06-19T00:23:21;76.97;;;49.85;;
70592;SDS011;58294;42.988;20.338;2023-06-19T00:25:47;109.93;;;68.80;;
70592;SDS011;58294;42.988;20.338;2023-06-19T00:28:13;88.70;;;56.55;;
70592;SDS011;58294;42.988;20.338;2023-06-19T00:30:40;65.97;;;47.05;;
70592;SDS011;58294;42.988;20.338;2023-06-19T00:33:06;75.53;;;47.55;;
70592;SDS011;58294;42.988;20.338;2023-06-19T00:35:32;113.13;;;72.50;;
70592;SDS011;58294;42.988;20.338;2023-06-19T00:37:58;191.68;;;118.45;;
70592;SDS011;58294;42.988;20.338;2023-06-19T00:40:29;209.23;;;125.50;;
70592;SDS011;58294;42.988;20.338;2023-06-19T00:42:56;170.80;;;104.18;;
70592;SDS011;58294;42.988;20.338;2023-06-19T00:45:22;217.73;;;135.40;;
70592;SDS011;58294;42.988;20.338;2023-06-19T00:47:53;198.43;;;122.72;;
70592;SDS011;58294;42.988;20.338;2023-06-19T00:50:20;173.60;;;109.13;;
70592;SDS011;58294;42.988;20.338;2023-06-19T00:52:47;266.75;;;169.95;;
70592;SDS011;58294;42.988;20.338;2023-06-19T00:55:13;159.75;;;102.22;;
70592;SDS011;58294;42.988;20.338;2023-06-19T00:57:41;153.02;;;93.82;;
70592;SDS011;58294;42.988;20.338;2023-06-19T01:00:07;143.57;;;84.32;;
70592;SDS011;58294;42.988;20.338;2023-06-19T01:02:38;109.28;;;61.85;;
70592;SDS011;58294;42.988;20.338;2023-06-19T01:05:04;117.07;;;73.35;;
70592;SDS011;58294;42.988;20.338;2023-06-19T01:07:44;104.78;;;66.95;;
70592;SDS011;58294;42.988;20.338;2023-06-19T01:10:31;93.10;;;56.63;;
70592;SDS011;58294;42.988;20.338;2023-06-19T01:13:02;98.82;;;60.25;;
70592;SDS011;58294;42.988;20.338;2023-06-19T01:15:49;56.42;;;35.42;;
70592;SDS011;58294;42.988;20.338;2023-06-19T01:18:16;35.85;;;23.42;;
70592;SDS011;58294;42.988;20.338;2023-06-19T01:20:42;28.60;;;19.55;;
70592;SDS011;58294;42.988;20.338;2023-06-19T01:23:09;13.80;;;11.13;;
70592;SDS011;58294;42.988;20.338;2023-06-19T01:25:36;27.65;;;19.85;;
70592;SDS011;58294;42.988;20.338;2023-06-19T01:28:06;13.23;;;10.07;;
70592;SDS011;58294;42.988;20.338;2023-06-19T01:30:36;9.70;;;8.13;;
70592;SDS011;58294;42.988;20.338;2023-06-19T01:33:05;50.88;;;31.05;;
70592;SDS011;58294;42.988;20.338;2023-06-19T01:35:37;20.15;;;16.38;;
70592;SDS011;58294;42.988;20.338;2023-06-19T01:38:07;36.55;;;25.38;;
70592;SDS011;58294;42.988;20.338;2023-06-19T01:40:33;47.72;;;29.58;;
70592;SDS011;58294;42.988;20.338;2023-06-19T01:43:00;63.70;;;39.58;;
70592;SDS011;58294;42.988;20.338;2023-06-19T01:45:28;47.30;;;32.58;;
70592;SDS011;58294;42.988;20.338;2023-06-19T01:47:55;63.88;;;37.95;;
70592;SDS011;58294;42.988;20.338;2023-06-19T01:50:22;50.38;;;33.25;;
70592;SDS011;58294;42.988;20.338;2023-06-19T01:52:49;39.72;;;23.95;;
70592;SDS011;58294;42.988;20.338;2023-06-19T01:55:15;16.30;;;14.15;;
70592;SDS011;58294;42.988;20.338;2023-06-19T01:57:41;17.63;;;11.65;;
70592;SDS011;58294;42.988;20.338;2023-06-19T02:00:07;14.57;;;8.57;;
70592;SDS011;58294;42.988;20.338;2023-06-19T02:02:35;11.77;;;9.35;;
70592;SDS011;58294;42.988;20.338;2023-06-19T02:05:01;11.40;;;9.20;;
70592;SDS011;58294;42.988;20.338;2023-06-19T02:07:27;10.80;;;9.07;;
70592;SDS011;58294;42.988;20.338;2023-06-19T02:09:53;16.25;;;10.75;;
70592;SDS011;58294;42.988;20.338;2023-06-19T02:12:19;11.52;;;10.32;;
70592;SDS011;58294;42.988;20.338;2023-06-19T02:14:45;13.50;;;10.30;;
70592;SDS011;58294;42.988;20.338;2023-06-19T02:17:10;12.77;;;9.85;;
70592;SDS011;58294;42.988;20.338;2023-06-19T02:19:36;11.38;;;8.88;;
70592;SDS011;58294;42.988;20.338;2023-06-19T02:22:02;12.55;;;10.18;;
70592;SDS011;58294;42.988;20.338;2023-06-19T02:24:28;13.45;;;8.70;;
70592;SDS011;58294;42.988;20.338;2023-06-19T02:26:54;8.85;;;7.78;;
70592;SDS011;58294;42.988;20.338;2023-06-19T02:29:19;9.32;;;7.88;;
70592;SDS011;58294;42.988;20.338;2023-06-19T02:31:45;10.50;;;7.28;;
70592;SDS011;58294;42.988;20.338;2023-06-19T02:34:11;8.52;;;6.90;;
70592;SDS011;58294;42.988;20.338;2023-06-19T02:36:37;11.52;;;8.10;;
70592;SDS011;58294;42.988;20.338;2023-06-19T02:39:06;10.27;;;8.07;;
70592;SDS011;58294;42.988;20.338;2023-06-19T02:41:32;15.68;;;10.60;;
70592;SDS011;58294;42.988;20.338;2023-06-19T02:43:58;15.02;;;8.65;;
70592;SDS011;58294;42.988;20.338;2023-06-19T02:46:23;11.27;;;8.00;;
70592;SDS011;58294;42.988;20.338;2023-06-19T02:48:49;12.40;;;9.18;;
70592;SDS011;58294;42.988;20.338;2023-06-19T02:51:15;16.60;;;10.75;;
70592;SDS011;58294;42.988;20.338;2023-06-19T02:53:41;21.60;;;11.30;;
70592;SDS011;58294;42.988;20.338;2023-06-19T02:56:09;19.70;;;10.63;;
70592;SDS011;58294;42.988;20.338;2023-06-19T02:58:36;15.85;;;11.10;;
70592;SDS011;58294;42.988;20.338;2023-06-19T03:01:03;15.35;;;11.23;;
70592;SDS011;58294;42.988;20.338;2023-06-19T03:03:29;14.07;;;11.32;;
70592;SDS011;58294;42.988;20.338;2023-06-19T03:05:55;22.58;;;12.13;;
70592;SDS011;58294;42.988;20.338;2023-06-19T03:08:21;17.65;;;11.18;;
70592;SDS011;58294;42.988;20.338;2023-06-19T03:10:47;16.88;;;10.07;;
70592;SDS011;58294;42.988;20.338;2023-06-19T03:13:13;12.30;;;9.13;;
70592;SDS011;58294;42.988;20.338;2023-06-19T03:15:39;10.45;;;9.30;;
70592;SDS011;58294;42.988;20.338;2023-06-19T03:18:04;10.45;;;8.77;;
70592;SDS011;58294;42.988;20.338;2023-06-19T03:20:33;10.23;;;8.07;;
70592;SDS011;58294;42.988;20.338;2023-06-19T03:22:59;10.07;;;8.65;;
70592;SDS011;58294;42.988;20.338;2023-06-19T03:25:25;13.43;;;9.05;;
70592;SDS011;58294;42.988;20.338;2023-06-19T03:27:50;14.07;;;9.25;;
70592;SDS011;58294;42.988;20.338;2023-06-19T03:30:16;10.10;;;8.65;;
70592;SDS011;58294;42.988;20.338;2023-06-19T03:32:43;12.85;;;8.65;;
70592;SDS011;58294;42.988;20.338;2023-06-19T03:35:09;15.55;;;9.48;;
70592;SDS011;58294;42.988;20.338;2023-06-19T03:37:35;14.27;;;9.73;;
70592;SDS011;58294;42.988;20.338;2023-06-19T03:40:01;14.20;;;9.57;;
70592;SDS011;58294;42.988;20.338;2023-06-19T03:42:30;12.93;;;8.73;;
70592;SDS011;58294;42.988;20.338;2023-06-19T03:44:57;16.45;;;9.85;;
70592;SDS011;58294;42.988;20.338;2023-06-19T03:47:23;11.70;;;9.18;;
70592;SDS011;58294;42.988;20.338;2023-06-19T03:49:48;12.40;;;9.32;;
70592;SDS011;58294;42.988;20.338;2023-06-19T03:52:14;10.60;;;9.55;;
70592;SDS011;58294;42.988;20.338;2023-06-19T03:54:40;14.38;;;9.23;;
70592;SDS011;58294;42.988;20.338;2023-06-19T03:57:06;22.65;;;15.18;;
70592;SDS011;58294;42.988;20.338;2023-06-19T03:59:33;25.95;;;14.20;;
70592;SDS011;58294;42.988;20.338;2023-06-19T04:01:59;37.50;;;12.43;;
70592;SDS011;58294;42.988;20.338;2023-06-19T04:04:25;18.92;;;11.35;;
70592;SDS011;58294;42.988;20.338;2023-06-19T04:06:51;26.75;;;13.57;;
70592;SDS011;58294;42.988;20.338;2023-06-19T04:09:16;27.23;;;13.02;;
70592;SDS011;58294;42.988;20.338;2023-06-19T04:11:42;19.30;;;11.50;;
70592;SDS011;58294;42.988;20.338;2023-06-19T04:14:08;23.13;;;13.25;;
70592;SDS011;58294;42.988;20.338;2023-06-19T04:16:34;20.05;;;13.10;;
70592;SDS011;58294;42.988;20.338;2023-06-19T04:19:00;25.67;;;14.23;;
70592;SDS011;58294;42.988;20.338;2023-06-19T04:21:26;23.95;;;13.95;;
70592;SDS011;58294;42.988;20.338;2023-06-19T04:23:52;21.20;;;13.77;;
70592;SDS011;58294;42.988;20.338;2023-06-19T04:26:17;23.27;;;14.88;;
70592;SDS011;58294;42.988;20.338;2023-06-19T04:28:44;20.58;;;13.73;;
70592;SDS011;58294;42.988;20.338;2023-06-19T04:31:09;14.13;;;10.52;;
70592;SDS011;58294;42.988;20.338;2023-06-19T04:33:35;14.25;;;10.90;;
70592;SDS011;58294;42.988;20.338;2023-06-19T04:36:01;19.30;;;11.23;;
70592;SDS011;58294;42.988;20.338;2023-06-19T04:38:27;21.63;;;13.15;;
70592;SDS011;58294;42.988;20.338;2023-06-19T04:40:53;15.23;;;11.23;;
70592;SDS011;58294;42.988;20.338;2023-06-19T04:43:19;15.95;;;11.00;;
70592;SDS011;58294;42.988;20.338;2023-06-19T04:45:45;14.02;;;11.07;;
70592;SDS011;58294;42.988;20.338;2023-06-19T04:48:10;15.77;;;11.25;;
70592;SDS011;58294;42.988;20.338;2023-06-19T04:50:36;17.52;;;11.48;;
70592;SDS011;58294;42.988;20.338;2023-06-19T04:53:02;13.48;;;11.07;;
70592;SDS011;58294;42.988;20.338;2023-06-19T04:55:28;12.88;;;10.57;;
70592;SDS011;58294;42.988;20.338;2023-06-19T04:57:55;15.88;;;10.63;;
70592;SDS011;58294;42.988;20.338;2023-06-19T05:00:21;14.55;;;11.15;;
70592;SDS011;58294;42.988;20.338;2023-06-19T05:02:48;17.23;;;12.20;;
70592;SDS011;58294;42.988;20.338;2023-06-19T05:05:15;20.30;;;11.70;;
70592;SDS011;58294;42.988;20.338;2023-06-19T05:07:41;17.65;;;11.75;;
70592;SDS011;58294;42.988;20.338;2023-06-19T05:10:07;15.07;;;12.05;;
70592;SDS011;58294;42.988;20.338;2023-06-19T05:12:36;16.13;;;11.32;;
70592;SDS011;58294;42.988;20.338;2023-06-19T05:15:02;18.73;;;11.73;;
70592;SDS011;58294;42.988;20.338;2023-06-19T05:17:28;15.02;;;10.80;;
70592;SDS011;58294;42.988;20.338;2023-06-19T05:19:54;18.08;;;10.88;;
70592;SDS011;58294;42.988;20.338;2023-06-19T05:22:20;12.88;;;10.40;;
70592;SDS011;58294;42.988;20.338;2023-06-19T05:24:46;10.80;;;9.63;;
70592;SDS011;58294;42.988;20.338;2023-06-19T05:27:12;15.05;;;10.73;;
70592;SDS011;58294;42.988;20.338;2023-06-19T05:29:38;15.50;;;11.43;;
70592;SDS011;58294;42.988;20.338;2023-06-19T05:32:04;15.90;;;11.35;;
70592;SDS011;58294;42.988;20.338;2023-06-19T05:34:30;13.30;;;11.02;;
70592;SDS011;58294;42.988;20.338;2023-06-19T05:36:57;16.13;;;10.50;;
70592;SDS011;58294;42.988;20.338;2023-06-19T05:39:25;14.73;;;11.00;;
70592;SDS011;58294;42.988;20.338;2023-06-19T05:41:52;14.32;;;9.93;;
70592;SDS011;58294;42.988;20.338;2023-06-19T05:44:18;10.15;;;9.15;;
70592;SDS011;58294;42.988;20.338;2023-06-19T05:46:44;12.55;;;10.18;;
70592;SDS011;58294;42.988;20.338;2023-06-19T05:49:10;13.85;;;10.68;;
70592;SDS011;58294;42.988;20.338;2023-06-19T05:51:36;11.18;;;9.80;;
70592;SDS011;58294;42.988;20.338;2023-06-19T05:54:02;15.85;;;11.38;;
70592;SDS011;58294;42.988;20.338;2023-06-19T05:56:32;13.05;;;11.35;;
70592;SDS011;58294;42.988;20.338;2023-06-19T05:58:59;19.15;;;12.13;;
70592;SDS011;58294;42.988;20.338;2023-06-19T06:01:25;15.30;;;11.13;;
70592;SDS011;58294;42.988;20.338;2023-06-19T06:03:54;13.52;;;11.68;;
70592;SDS011;58294;42.988;20.338;2023-06-19T06:06:22;11.30;;;9.93;;
70592;SDS011;58294;42.988;20.338;2023-06-19T06:08:48;12.85;;;10.90;;
70592;SDS011;58294;42.988;20.338;2023-06-19T06:11:14;11.95;;;9.88;;
70592;SDS011;58294;42.988;20.338;2023-06-19T06:13:40;14.68;;;10.77;;
70592;SDS011;58294;42.988;20.338;2023-06-19T06:16:06;12.38;;;10.35;;
70592;SDS011;58294;42.988;20.338;2023-06-19T06:18:32;11.07;;;9.32;;
70592;SDS011;58294;42.988;20.338;2023-06-19T06:20:58;10.50;;;9.18;;
70592;SDS011;58294;42.988;20.338;2023-06-19T06:23:24;11.68;;;8.68;;
70592;SDS011;58294;42.988;20.338;2023-06-19T06:25:50;12.50;;;9.80;;
70592;SDS011;58294;42.988;20.338;2023-06-19T06:28:18;13.90;;;10.63;;
70592;SDS011;58294;42.988;20.338;2023-06-19T06:30:43;12.32;;;10.43;;
70592;SDS011;58294;42.988;20.338;2023-06-19T06:33:09;12.30;;;10.23;;
70592;SDS011;58294;42.988;20.338;2023-06-19T06:35:35;11.98;;;9.65;;
70592;SDS011;58294;42.988;20.338;2023-06-19T06:38:01;9.40;;;8.43;;
70592;SDS011;58294;42.988;20.338;2023-06-19T06:40:27;18.02;;;8.80;;
70592;SDS011;58294;42.988;20.338;2023-06-19T06:42:53;11.80;;;10.57;;
70592;SDS011;58294;42.988;20.338;2023-06-19T06:45:20;22.65;;;14.40;;
70592;SDS011;58294;42.988;20.338;2023-06-19T06:47:45;14.50;;;13.10;;
70592;SDS011;58294;42.988;20.338;2023-06-19T06:50:12;14.60;;;11.23;;
70592;SDS011;58294;42.988;20.338;2023-06-19T06:52:37;11.68;;;10.10;;
70592;SDS011;58294;42.988;20.338;2023-06-19T06:55:04;10.73;;;9.63;;
70592;SDS011;58294;42.988;20.338;2023-06-19T06:57:30;13.82;;;10.18;;
70592;SDS011;58294;42.988;20.338;2023-06-19T06:59:56;12.13;;;10.60;;
70592;SDS011;58294;42.988;20.338;2023-06-19T07:02:22;18.45;;;11.30;;
70592;SDS011;58294;42.988;20.338;2023-06-19T07:04:48;11.80;;;10.45;;
70592;SDS011;58294;42.988;20.338;2023-06-19T07:07:14;12.02;;;9.60;;
70592;SDS011;58294;42.988;20.338;2023-06-19T07:09:40;10.75;;;9.65;;
70592;SDS011;58294;42.988;20.338;2023-06-19T07:12:07;12.45;;;10.40;;
70592;SDS011;58294;42.988;20.338;2023-06-19T07:14:33;12.38;;;10.55;;
70592;SDS011;58294;42.988;20.338;2023-06-19T07:16:59;14.55;;;11.77;;
70592;SDS011;58294;42.988;20.338;2023-06-19T07:19:25;18.98;;;14.10;;
70592;SDS011;58294;42.988;20.338;2023-06-19T07:21:51;15.82;;;11.75;;
70592;SDS011;58294;42.988;20.338;2023-06-19T07:24:18;14.63;;;12.27;;
70592;SDS011;58294;42.988;20.338;2023-06-19T07:26:45;16.13;;;12.00;;
70592;SDS011;58294;42.988;20.338;2023-06-19T07:29:12;15.10;;;10.27;;
70592;SDS011;58294;42.988;20.338;2023-06-19T07:31:38;14.93;;;11.07;;
70592;SDS011;58294;42.988;20.338;2023-06-19T07:34:04;11.57;;;10.38;;
70592;SDS011;58294;42.988;20.338;2023-06-19T07:36:30;12.93;;;10.98;;
70592;SDS011;58294;42.988;20.338;2023-06-19T07:38:56;11.13;;;8.98;;
70592;SDS011;58294;42.988;20.338;2023-06-19T07:41:22;13.85;;;10.25;;
70592;SDS011;58294;42.988;20.338;2023-06-19T07:43:48;13.32;;;11.75;;
70592;SDS011;58294;42.988;20.338;2023-06-19T07:46:14;17.02;;;12.07;;
70592;SDS011;58294;42.988;20.338;2023-06-19T07:48:40;14.68;;;11.88;;
70592;SDS011;58294;42.988;20.338;2023-06-19T07:51:06;16.52;;;12.55;;
70592;SDS011;58294;42.988;20.338;2023-06-19T07:53:32;11.48;;;10.30;;
70592;SDS011;58294;42.988;20.338;2023-06-19T07:55:58;13.45;;;10.50;;
70592;SDS011;58294;42.988;20.338;2023-06-19T07:58:24;16.60;;;12.73;;
70592;SDS011;58294;42.988;20.338;2023-06-19T08:00:50;10.75;;;8.75;;
70592;SDS011;58294;42.988;20.338;2023-06-19T08:03:16;9.50;;;8.50;;
70592;SDS011;58294;42.988;20.338;2023-06-19T08:05:42;10.95;;;8.80;;
70592;SDS011;58294;42.988;20.338;2023-06-19T08:08:08;8.55;;;7.75;;
70592;SDS011;58294;42.988;20.338;2023-06-19T08:10:34;8.82;;;7.95;;
70592;SDS011;58294;42.988;20.338;2023-06-19T08:13:01;10.90;;;9.00;;
70592;SDS011;58294;42.988;20.338;2023-06-19T08:15:27;12.32;;;8.05;;
70592;SDS011;58294;42.988;20.338;2023-06-19T08:17:53;11.27;;;8.98;;
70592;SDS011;58294;42.988;20.338;2023-06-19T08:20:20;10.02;;;7.18;;
70592;SDS011;58294;42.988;20.338;2023-06-19T08:22:46;10.32;;;7.05;;
70592;SDS011;58294;42.988;20.338;2023-06-19T08:25:12;8.95;;;7.65;;
70592;SDS011;58294;42.988;20.338;2023-06-19T08:27:38;7.93;;;6.85;;
70592;SDS011;58294;42.988;20.338;2023-06-19T08:30:04;7.03;;;6.28;;
70592;SDS011;58294;42.988;20.338;2023-06-19T08:32:30;8.35;;;7.03;;
70592;SDS011;58294;42.988;20.338;2023-06-19T08:34:56;8.20;;;6.65;;
70592;SDS011;58294;42.988;20.338;2023-06-19T08:37:22;8.05;;;6.13;;
70592;SDS011;58294;42.988;20.338;2023-06-19T08:39:48;6.70;;;6.03;;
70592;SDS011;58294;42.988;20.338;2023-06-19T08:42:14;7.95;;;6.50;;
70592;SDS011;58294;42.988;20.338;2023-06-19T08:44:40;8.82;;;6.43;;
70592;SDS011;58294;42.988;20.338;2023-06-19T08:47:05;7.20;;;6.20;;
70592;SDS011;58294;42.988;20.338;2023-06-19T08:49:35;15.70;;;9.15;;
70592;SDS011;58294;42.988;20.338;2023-06-19T08:52:02;8.70;;;6.40;;
70592;SDS011;58294;42.988;20.338;2023-06-19T08:54:28;6.85;;;5.80;;
70592;SDS011;58294;42.988;20.338;2023-06-19T08:56:55;7.25;;;6.22;;
70592;SDS011;58294;42.988;20.338;2023-06-19T08:59:21;9.10;;;6.07;;
70592;SDS011;58294;42.988;20.338;2023-06-19T09:01:51;7.43;;;6.28;;
70592;SDS011;58294;42.988;20.338;2023-06-19T09:04:19;6.63;;;6.03;;
70592;SDS011;58294;42.988;20.338;2023-06-19T09:06:50;8.57;;;7.72;;
70592;SDS011;58294;42.988;20.338;2023-06-19T09:09:17;7.43;;;6.63;;
70592;SDS011;58294;42.988;20.338;2023-06-19T09:11:56;9.63;;;6.68;;
70592;SDS011;58294;42.988;20.338;2023-06-19T09:17:02;7.90;;;6.53;;
70592;SDS011;58294;42.988;20.338;2023-06-19T09:19:29;6.70;;;6.10;;
70592;SDS011;58294;42.988;20.338;2023-06-19T09:22:02;6.63;;;5.93;;
70592;SDS011;58294;42.988;20.338;2023-06-19T09:27:06;7.40;;;5.80;;
70592;SDS011;58294;42.988;20.338;2023-06-19T09:29:39;12.02;;;6.45;;
70592;SDS011;58294;42.988;20.338;2023-06-19T09:32:27;6.95;;;6.13;;
70592;SDS011;58294;42.988;20.338;2023-06-19T09:34:54;9.35;;;6.40;;
70592;SDS011;58294;42.988;20.338;2023-06-19T09:37:27;7.22;;;5.97;;
70592;SDS011;58294;42.988;20.338;2023-06-19T09:42:34;6.93;;;5.72;;
70592;SDS011;58294;42.988;20.338;2023-06-19T09:45:05;6.70;;;5.40;;
70592;SDS011;58294;42.988;20.338;2023-06-19T09:47:36;6.68;;;5.28;;
70592;SDS011;58294;42.988;20.338;2023-06-19T09:50:02;10.75;;;6.35;;
70592;SDS011;58294;42.988;20.338;2023-06-19T09:52:29;8.73;;;6.28;;
70592;SDS011;58294;42.988;20.338;2023-06-19T09:54:56;7.38;;;5.68;;
70592;SDS011;58294;42.988;20.338;2023-06-19T09:57:23;6.25;;;5.50;;
70592;SDS011;58294;42.988;20.338;2023-06-19T09:59:53;6.30;;;5.70;;
70592;SDS011;58294;42.988;20.338;2023-06-19T10:02:21;6.25;;;5.65;;
70592;SDS011;58294;42.988;20.338;2023-06-19T10:04:49;7.75;;;6.13;;
70592;SDS011;58294;42.988;20.338;2023-06-19T10:07:20;6.45;;;5.88;;
70592;SDS011;58294;42.988;20.338;2023-06-19T10:10:01;9.20;;;5.65;;
70592;SDS011;58294;42.988;20.338;2023-06-19T10:12:37;7.45;;;5.63;;
70592;SDS011;58294;42.988;20.338;2023-06-19T10:15:23;7.45;;;5.85;;
70592;SDS011;58294;42.988;20.338;2023-06-19T10:17:59;7.20;;;6.13;;
70592;SDS011;58294;42.988;20.338;2023-06-19T10:23:19;6.28;;;5.00;;
70592;SDS011;58294;42.988;20.338;2023-06-19T10:28:20;6.22;;;5.18;;
70592;SDS011;58294;42.988;20.338;2023-06-19T10:33:30;7.07;;;6.20;;
70592;SDS011;58294;42.988;20.338;2023-06-19T10:35:58;6.72;;;5.63;;
70592;SDS011;58294;42.988;20.338;2023-06-19T10:38:25;6.75;;;5.93;;
70592;SDS011;58294;42.988;20.338;2023-06-19T10:40:51;5.63;;;5.03;;
70592;SDS011;58294;42.988;20.338;2023-06-19T10:43:21;5.10;;;4.60;;
70592;SDS011;58294;42.988;20.338;2023-06-19T10:45:50;7.35;;;5.95;;
70592;SDS011;58294;42.988;20.338;2023-06-19T10:48:22;6.95;;;5.93;;
70592;SDS011;58294;42.988;20.338;2023-06-19T10:50:48;8.65;;;5.65;;
70592;SDS011;58294;42.988;20.338;2023-06-19T10:53:28;9.73;;;5.90;;
70592;SDS011;58294;42.988;20.338;2023-06-19T10:56:00;6.30;;;4.90;;
70592;SDS011;58294;42.988;20.338;2023-06-19T10:58:26;5.20;;;4.68;;
70592;SDS011;58294;42.988;20.338;2023-06-19T11:00:54;6.00;;;5.32;;
70592;SDS011;58294;42.988;20.338;2023-06-19T11:03:20;6.60;;;5.50;;
70592;SDS011;58294;42.988;20.338;2023-06-19T11:05:47;6.00;;;5.03;;
70592;SDS011;58294;42.988;20.338;2023-06-19T11:08:20;5.22;;;4.78;;
70592;SDS011;58294;42.988;20.338;2023-06-19T11:10:47;5.30;;;4.80;;
70592;SDS011;58294;42.988;20.338;2023-06-19T11:13:16;7.10;;;5.70;;
70592;SDS011;58294;42.988;20.338;2023-06-19T11:15:44;6.07;;;5.47;;
70592;SDS011;58294;42.988;20.338;2023-06-19T11:18:10;5.50;;;5.00;;
70592;SDS011;58294;42.988;20.338;2023-06-19T11:20:49;6.35;;;5.30;;
70592;SDS011;58294;42.988;20.338;2023-06-19T11:23:16;7.32;;;5.53;;
70592;SDS011;58294;42.988;20.338;2023-06-19T11:25:42;4.80;;;4.40;;
70592;SDS011;58294;42.988;20.338;2023-06-19T11:28:12;5.50;;;5.00;;
70592;SDS011;58294;42.988;20.338;2023-06-19T11:30:38;5.70;;;5.10;;
70592;SDS011;58294;42.988;20.338;2023-06-19T11:33:18;6.85;;;5.03;;
70592;SDS011;58294;42.988;20.338;2023-06-19T11:35:54;5.80;;;5.30;;
70592;SDS011;58294;42.988;20.338;2023-06-19T11:38:23;5.38;;;4.88;;
70592;SDS011;58294;42.988;20.338;2023-06-19T11:40:51;7.18;;;5.45;;
70592;SDS011;58294;42.988;20.338;2023-06-19T11:43:24;7.32;;;5.18;;
70592;SDS011;58294;42.988;20.338;2023-06-19T11:45:51;7.38;;;5.63;;
70592;SDS011;58294;42.988;20.338;2023-06-19T11:48:24;11.95;;;7.32;;
70592;SDS011;58294;42.988;20.338;2023-06-19T11:50:50;5.97;;;5.43;;
70592;SDS011;58294;42.988;20.338;2023-06-19T11:53:17;8.68;;;5.63;;
70592;SDS011;58294;42.988;20.338;2023-06-19T11:55:46;7.03;;;5.30;;
70592;SDS011;58294;42.988;20.338;2023-06-19T11:58:12;7.30;;;5.38;;
70592;SDS011;58294;42.988;20.338;2023-06-19T12:00:40;15.90;;;6.55;;
70592;SDS011;58294;42.988;20.338;2023-06-19T12:03:07;14.07;;;6.72;;
70592;SDS011;58294;42.988;20.338;2023-06-19T12:05:33;5.80;;;4.90;;
70592;SDS011;58294;42.988;20.338;2023-06-19T12:07:59;13.52;;;7.50;;
70592;SDS011;58294;42.988;20.338;2023-06-19T12:10:27;7.45;;;5.55;;
70592;SDS011;58294;42.988;20.338;2023-06-19T12:12:53;5.38;;;4.88;;
70592;SDS011;58294;42.988;20.338;2023-06-19T12:15:29;6.05;;;5.45;;
70592;SDS011;58294;42.988;20.338;2023-06-19T12:17:55;10.38;;;6.68;;
70592;SDS011;58294;42.988;20.338;2023-06-19T12:20:23;9.55;;;5.88;;
70592;SDS011;58294;42.988;20.338;2023-06-19T12:22:50;6.68;;;5.55;;
70592;SDS011;58294;42.988;20.338;2023-06-19T12:25:16;6.07;;;5.47;;
70592;SDS011;58294;42.988;20.338;2023-06-19T12:27:41;8.00;;;5.85;;
70592;SDS011;58294;42.988;20.338;2023-06-19T12:30:09;8.63;;;6.07;;
70592;SDS011;58294;42.988;20.338;2023-06-19T12:32:35;6.45;;;5.68;;
70592;SDS011;58294;42.988;20.338;2023-06-19T12:35:01;6.15;;;5.57;;
70592;SDS011;58294;42.988;20.338;2023-06-19T12:37:28;6.55;;;5.82;;
70592;SDS011;58294;42.988;20.338;2023-06-19T12:39:54;9.10;;;6.50;;
70592;SDS011;58294;42.988;20.338;2023-06-19T12:42:19;5.80;;;4.90;;
70592;SDS011;58294;42.988;20.338;2023-06-19T12:44:45;11.05;;;5.75;;
70592;SDS011;58294;42.988;20.338;2023-06-19T12:47:11;5.60;;;5.10;;
70592;SDS011;58294;42.988;20.338;2023-06-19T12:49:38;8.45;;;5.90;;
70592;SDS011;58294;42.988;20.338;2023-06-19T12:52:04;7.55;;;6.18;;
70592;SDS011;58294;42.988;20.338;2023-06-19T12:54:34;6.50;;;5.65;;
70592;SDS011;58294;42.988;20.338;2023-06-19T12:57:04;6.20;;;5.20;;
70592;SDS011;58294;42.988;20.338;2023-06-19T12:59:31;6.93;;;5.50;;
70592;SDS011;58294;42.988;20.338;2023-06-19T13:01:57;10.48;;;6.90;;
70592;SDS011;58294;42.988;20.338;2023-06-19T13:04:23;8.77;;;5.60;;
70592;SDS011;58294;42.988;20.338;2023-06-19T13:06:49;6.78;;;6.07;;
70592;SDS011;58294;42.988;20.338;2023-06-19T13:09:15;6.72;;;5.20;;
70592;SDS011;58294;42.988;20.338;2023-06-19T13:11:41;6.47;;;5.85;;
70592;SDS011;58294;42.988;20.338;2023-06-19T13:14:07;8.63;;;5.60;;
70592;SDS011;58294;42.988;20.338;2023-06-19T13:16:32;11.70;;;5.85;;
70592;SDS011;58294;42.988;20.338;2023-06-19T13:18:58;7.55;;;5.57;;
70592;SDS011;58294;42.988;20.338;2023-06-19T13:21:24;10.60;;;6.72;;
70592;SDS011;58294;42.988;20.338;2023-06-19T13:23:50;11.85;;;6.05;;
70592;SDS011;58294;42.988;20.338;2023-06-19T13:26:16;13.77;;;7.00;;
70592;SDS011;58294;42.988;20.338;2023-06-19T13:28:42;6.00;;;4.90;;
70592;SDS011;58294;42.988;20.338;2023-06-19T13:31:08;6.55;;;5.25;;
70592;SDS011;58294;42.988;20.338;2023-06-19T13:33:34;9.70;;;7.35;;
70592;SDS011;58294;42.988;20.338;2023-06-19T13:36:00;6.95;;;5.20;;
70592;SDS011;58294;42.988;20.338;2023-06-19T13:38:26;6.15;;;5.55;;
70592;SDS011;58294;42.988;20.338;2023-06-19T13:40:51;8.05;;;5.30;;
70592;SDS011;58294;42.988;20.338;2023-06-19T13:43:17;7.07;;;6.13;;
70592;SDS011;58294;42.988;20.338;2023-06-19T13:45:44;6.15;;;5.28;;
70592;SDS011;58294;42.988;20.338;2023-06-19T13:48:10;7.05;;;6.15;;
70592;SDS011;58294;42.988;20.338;2023-06-19T13:50:36;10.27;;;6.53;;
70592;SDS011;58294;42.988;20.338;2023-06-19T13:53:02;6.18;;;5.60;;
70592;SDS011;58294;42.988;20.338;2023-06-19T13:55:28;7.00;;;6.05;;
70592;SDS011;58294;42.988;20.338;2023-06-19T13:57:54;17.08;;;7.45;;
70592;SDS011;58294;42.988;20.338;2023-06-19T14:00:20;6.45;;;5.72;;
70592;SDS011;58294;42.988;20.338;2023-06-19T14:02:46;12.98;;;6.90;;
70592;SDS011;58294;42.988;20.338;2023-06-19T14:05:12;6.28;;;5.68;;
70592;SDS011;58294;42.988;20.338;2023-06-19T14:07:42;8.20;;;5.88;;
70592;SDS011;58294;42.988;20.338;2023-06-19T14:10:08;14.60;;;8.30;;
70592;SDS011;58294;42.988;20.338;2023-06-19T14:12:34;7.05;;;5.85;;
70592;SDS011;58294;42.988;20.338;2023-06-19T14:15:00;7.13;;;6.43;;
70592;SDS011;58294;42.988;20.338;2023-06-19T14:17:26;9.13;;;7.95;;
70592;SDS011;58294;42.988;20.338;2023-06-19T14:19:52;15.90;;;8.13;;
70592;SDS011;58294;42.988;20.338;2023-06-19T14:22:20;9.68;;;7.47;;
70592;SDS011;58294;42.988;20.338;2023-06-19T14:24:46;9.35;;;7.20;;
70592;SDS011;58294;42.988;20.338;2023-06-19T14:27:12;10.18;;;7.28;;
70592;SDS011;58294;42.988;20.338;2023-06-19T14:29:39;7.53;;;6.13;;
70592;SDS011;58294;42.988;20.338;2023-06-19T14:32:05;6.93;;;5.97;;
70592;SDS011;58294;42.988;20.338;2023-06-19T14:34:31;12.77;;;6.93;;
70592;SDS011;58294;42.988;20.338;2023-06-19T14:36:57;15.38;;;7.68;;